USCM 060700Z 03005MPS 6000 -SN BKN030 M17/M20 Q1038 R36/450250 TEMPO 1500 SN VV005 RMK QFE739
QNH:(hPa/inHg/mmHg)1038 / 30.65 / 779
QFE:(hPa/inHg/mmHg)1022 / 30.18 / 766
Temperature-17
Dew Point-20
Visibility1500
WeatherLight Snow;Snow
Cloud CoverBKN (3000);
VV (500);
Transition Altitude1300 ft.
Transition LevelFL20
SQUAWK